sensor_id;sensor_type;location;lat;lon;timestamp;temperature;humidity
20141;DHT22;10231;47.702;9.826;2023-09-19T00:01:41;16.40;99.90
20141;DHT22;10231;47.702;9.826;2023-09-19T00:04:09;16.40;99.90
20141;DHT22;10231;47.702;9.826;2023-09-19T00:06:36;16.40;99.90
20141;DHT22;10231;47.702;9.826;2023-09-19T00:09:02;16.50;99.90
20141;DHT22;10231;47.702;9.826;2023-09-19T00:11:28;16.50;99.90
20141;DHT22;10231;47.702;9.826;2023-09-19T00:13:54;16.50;99.90
20141;DHT22;10231;47.702;9.826;2023-09-19T00:16:20;16.60;99.90
20141;DHT22;10231;47.702;9.826;2023-09-19T00:18:46;16.60;99.90
20141;DHT22;10231;47.702;9.826;2023-09-19T00:21:12;16.50;99.90
20141;DHT22;10231;47.702;9.826;2023-09-19T00:23:38;16.50;99.90
20141;DHT22;10231;47.702;9.826;2023-09-19T00:26:03;16.50;99.90
20141;DHT22;10231;47.702;9.826;2023-09-19T00:28:30;16.50;99.90
20141;DHT22;10231;47.702;9.826;2023-09-19T00:30:57;16.50;99.90
20141;DHT22;10231;47.702;9.826;2023-09-19T00:33:27;16.50;99.90
20141;DHT22;10231;47.702;9.826;2023-09-19T00:35:56;16.60;99.90
20141;DHT22;10231;47.702;9.826;2023-09-19T00:38:22;16.50;99.90
20141;DHT22;10231;47.702;9.826;2023-09-19T00:40:53;16.50;99.90
20141;DHT22;10231;47.702;9.826;2023-09-19T00:43:19;16.50;99.90
20141;DHT22;10231;47.702;9.826;2023-09-19T00:45:50;16.50;99.90
20141;DHT22;10231;47.702;9.826;2023-09-19T00:48:20;16.50;99.90
20141;DHT22;10231;47.702;9.826;2023-09-19T00:50:47;16.40;99.90
20141;DHT22;10231;47.702;9.826;2023-09-19T00:53:17;16.40;99.90
20141;DHT22;10231;47.702;9.826;2023-09-19T00:55:44;16.40;99.90
20141;DHT22;10231;47.702;9.826;2023-09-19T00:58:11;16.40;99.90
20141;DHT22;10231;47.702;9.826;2023-09-19T01:00:37;16.40;99.90
20141;DHT22;10231;47.702;9.826;2023-09-19T01:03:03;16.40;99.90
20141;DHT22;10231;47.702;9.826;2023-09-19T01:05:29;16.40;99.90
20141;DHT22;10231;47.702;9.826;2023-09-19T01:07:55;16.40;99.90
20141;DHT22;10231;47.702;9.826;2023-09-19T01:10:21;16.40;99.90
20141;DHT22;10231;47.702;9.826;2023-09-19T01:13:18;16.40;99.90
20141;DHT22;10231;47.702;9.826;2023-09-19T01:19:01;16.50;99.90
20141;DHT22;10231;47.702;9.826;2023-09-19T01:21:49;16.50;99.90
20141;DHT22;10231;47.702;9.826;2023-09-19T01:27:21;16.40;99.90
20141;DHT22;10231;47.702;9.826;2023-09-19T01:29:50;16.40;99.90
20141;DHT22;10231;47.702;9.826;2023-09-19T01:32:18;16.30;99.90
20141;DHT22;10231;47.702;9.826;2023-09-19T01:37:14;16.30;99.90
20141;DHT22;10231;47.702;9.826;2023-09-19T01:39:45;16.30;99.90
20141;DHT22;10231;47.702;9.826;2023-09-19T01:42:41;16.30;99.90
20141;DHT22;10231;47.702;9.826;2023-09-19T01:45:24;16.30;99.90
20141;DHT22;10231;47.702;9.826;2023-09-19T01:47:55;16.30;99.90
20141;DHT22;10231;47.702;9.826;2023-09-19T01:50:41;16.20;99.90
20141;DHT22;10231;47.702;9.826;2023-09-19T01:53:19;16.20;99.90
20141;DHT22;10231;47.702;9.826;2023-09-19T01:55:48;16.20;99.90
20141;DHT22;10231;47.702;9.826;2023-09-19T02:00:50;16.30;99.90
20141;DHT22;10231;47.702;9.826;2023-09-19T02:03:17;16.30;99.90
20141;DHT22;10231;47.702;9.826;2023-09-19T02:05:49;16.30;99.90
20141;DHT22;10231;47.702;9.826;2023-09-19T02:08:17;16.30;99.90
20141;DHT22;10231;47.702;9.826;2023-09-19T02:10:44;16.30;99.90
20141;DHT22;10231;47.702;9.826;2023-09-19T02:13:17;16.30;99.90
20141;DHT22;10231;47.702;9.826;2023-09-19T02:15:43;16.40;99.90
20141;DHT22;10231;47.702;9.826;2023-09-19T02:18:12;16.40;99.90
20141;DHT22;10231;47.702;9.826;2023-09-19T02:20:41;16.40;99.90
20141;DHT22;10231;47.702;9.826;2023-09-19T02:23:07;16.40;99.90
20141;DHT22;10231;47.702;9.826;2023-09-19T02:25:33;16.40;99.90
20141;DHT22;10231;47.702;9.826;2023-09-19T02:27:59;16.40;99.90
20141;DHT22;10231;47.702;9.826;2023-09-19T02:30:26;16.30;99.90
20141;DHT22;10231;47.702;9.826;2023-09-19T02:32:52;16.40;99.90
20141;DHT22;10231;47.702;9.826;2023-09-19T02:35:18;16.40;99.90
20141;DHT22;10231;47.702;9.826;2023-09-19T02:37:47;16.40;99.90
20141;DHT22;10231;47.702;9.826;2023-09-19T02:40:12;16.30;99.90
20141;DHT22;10231;47.702;9.826;2023-09-19T02:42:47;16.30;99.90
20141;DHT22;10231;47.702;9.826;2023-09-19T02:45:14;16.30;99.90
20141;DHT22;10231;47.702;9.826;2023-09-19T02:47:40;16.30;99.90
20141;DHT22;10231;47.702;9.826;2023-09-19T02:50:06;16.40;99.90
20141;DHT22;10231;47.702;9.826;2023-09-19T02:52:32;16.40;99.90
20141;DHT22;10231;47.702;9.826;2023-09-19T02:54:57;16.40;99.90
20141;DHT22;10231;47.702;9.826;2023-09-19T02:57:23;16.40;99.90
20141;DHT22;10231;47.702;9.826;2023-09-19T02:59:49;16.40;99.90
20141;DHT22;10231;47.702;9.826;2023-09-19T03:02:15;16.50;99.90
20141;DHT22;10231;47.702;9.826;2023-09-19T03:04:41;16.50;99.90
20141;DHT22;10231;47.702;9.826;2023-09-19T03:07:06;16.50;99.90
20141;DHT22;10231;47.702;9.826;2023-09-19T03:09:32;16.50;99.90
20141;DHT22;10231;47.702;9.826;2023-09-19T03:11:58;16.50;99.90
20141;DHT22;10231;47.702;9.826;2023-09-19T03:14:24;16.50;99.90
20141;DHT22;10231;47.702;9.826;2023-09-19T03:16:50;16.50;99.90
20141;DHT22;10231;47.702;9.826;2023-09-19T03:19:17;16.50;99.90
20141;DHT22;10231;47.702;9.826;2023-09-19T03:21:43;16.50;99.90
20141;DHT22;10231;47.702;9.826;2023-09-19T03:24:09;16.50;99.90
20141;DHT22;10231;47.702;9.826;2023-09-19T03:26:34;16.50;99.90
20141;DHT22;10231;47.702;9.826;2023-09-19T03:29:03;16.50;99.90
20141;DHT22;10231;47.702;9.826;2023-09-19T03:31:31;16.50;99.90
20141;DHT22;10231;47.702;9.826;2023-09-19T03:33:57;16.50;99.90
20141;DHT22;10231;47.702;9.826;2023-09-19T03:36:22;16.50;99.90
20141;DHT22;10231;47.702;9.826;2023-09-19T03:38:48;16.60;99.90
20141;DHT22;10231;47.702;9.826;2023-09-19T03:41:14;16.60;99.90
20141;DHT22;10231;47.702;9.826;2023-09-19T03:43:42;16.60;99.90
20141;DHT22;10231;47.702;9.826;2023-09-19T03:46:08;16.60;99.90
20141;DHT22;10231;47.702;9.826;2023-09-19T03:48:33;16.60;99.90
20141;DHT22;10231;47.702;9.826;2023-09-19T03:50:59;16.60;99.90
20141;DHT22;10231;47.702;9.826;2023-09-19T03:53:24;16.60;99.90
20141;DHT22;10231;47.702;9.826;2023-09-19T03:55:50;16.60;99.90
20141;DHT22;10231;47.702;9.826;2023-09-19T03:58:15;16.60;99.90
20141;DHT22;10231;47.702;9.826;2023-09-19T04:00:41;16.70;99.90
20141;DHT22;10231;47.702;9.826;2023-09-19T04:03:07;16.70;99.90
20141;DHT22;10231;47.702;9.826;2023-09-19T04:05:33;16.60;99.90
20141;DHT22;10231;47.702;9.826;2023-09-19T04:07:59;16.60;99.90
20141;DHT22;10231;47.702;9.826;2023-09-19T04:10:24;16.60;99.90
20141;DHT22;10231;47.702;9.826;2023-09-19T04:12:51;16.60;99.90
20141;DHT22;10231;47.702;9.826;2023-09-19T04:15:17;16.60;99.90
20141;DHT22;10231;47.702;9.826;2023-09-19T04:17:43;16.70;99.90
20141;DHT22;10231;47.702;9.826;2023-09-19T04:20:09;16.60;99.90
20141;DHT22;10231;47.702;9.826;2023-09-19T04:22:37;16.60;99.90
20141;DHT22;10231;47.702;9.826;2023-09-19T04:25:04;16.70;99.90
20141;DHT22;10231;47.702;9.826;2023-09-19T04:27:29;16.70;99.90
20141;DHT22;10231;47.702;9.826;2023-09-19T04:29:55;16.70;99.90
20141;DHT22;10231;47.702;9.826;2023-09-19T04:32:27;16.70;99.90
20141;DHT22;10231;47.702;9.826;2023-09-19T04:34:53;16.70;99.90
20141;DHT22;10231;47.702;9.826;2023-09-19T04:37:19;16.60;99.90
20141;DHT22;10231;47.702;9.826;2023-09-19T04:39:44;16.60;99.90
20141;DHT22;10231;47.702;9.826;2023-09-19T04:42:13;16.60;99.90
20141;DHT22;10231;47.702;9.826;2023-09-19T04:44:40;16.60;99.90
20141;DHT22;10231;47.702;9.826;2023-09-19T04:47:05;16.60;99.90
20141;DHT22;10231;47.702;9.826;2023-09-19T04:49:31;16.60;99.90
20141;DHT22;10231;47.702;9.826;2023-09-19T04:51:57;16.60;99.90
20141;DHT22;10231;47.702;9.826;2023-09-19T04:54:22;16.60;99.90
20141;DHT22;10231;47.702;9.826;2023-09-19T04:56:48;16.60;99.90
20141;DHT22;10231;47.702;9.826;2023-09-19T04:59:14;16.60;99.90
20141;DHT22;10231;47.702;9.826;2023-09-19T05:01:40;16.60;99.90
20141;DHT22;10231;47.702;9.826;2023-09-19T05:04:06;16.50;99.90
20141;DHT22;10231;47.702;9.826;2023-09-19T05:06:31;16.50;99.90
20141;DHT22;10231;47.702;9.826;2023-09-19T05:08:58;16.50;99.90
20141;DHT22;10231;47.702;9.826;2023-09-19T05:11:26;16.40;99.90
20141;DHT22;10231;47.702;9.826;2023-09-19T05:13:52;16.50;99.90
20141;DHT22;10231;47.702;9.826;2023-09-19T05:16:18;16.40;99.90
20141;DHT22;10231;47.702;9.826;2023-09-19T05:18:44;16.50;99.90
20141;DHT22;10231;47.702;9.826;2023-09-19T05:21:10;16.60;99.90
20141;DHT22;10231;47.702;9.826;2023-09-19T05:23:35;16.50;99.90
20141;DHT22;10231;47.702;9.826;2023-09-19T05:26:02;16.60;99.90
20141;DHT22;10231;47.702;9.826;2023-09-19T05:28:29;16.60;99.90
20141;DHT22;10231;47.702;9.826;2023-09-19T05:30:55;16.50;99.90
20141;DHT22;10231;47.702;9.826;2023-09-19T05:33:20;16.60;99.90
20141;DHT22;10231;47.702;9.826;2023-09-19T05:35:48;16.60;99.90
20141;DHT22;10231;47.702;9.826;2023-09-19T05:38:14;16.60;99.90
20141;DHT22;10231;47.702;9.826;2023-09-19T05:40:45;16.60;99.90
20141;DHT22;10231;47.702;9.826;2023-09-19T05:43:10;16.60;99.90
20141;DHT22;10231;47.702;9.826;2023-09-19T05:45:36;16.60;99.90
20141;DHT22;10231;47.702;9.826;2023-09-19T05:48:11;16.60;99.90
20141;DHT22;10231;47.702;9.826;2023-09-19T05:50:41;16.60;99.90
20141;DHT22;10231;47.702;9.826;2023-09-19T05:53:07;16.70;99.90
20141;DHT22;10231;47.702;9.826;2023-09-19T05:55:33;16.70;99.90
20141;DHT22;10231;47.702;9.826;2023-09-19T05:57:59;16.70;99.90
20141;DHT22;10231;47.702;9.826;2023-09-19T06:00:25;16.70;99.90
20141;DHT22;10231;47.702;9.826;2023-09-19T06:02:56;16.70;99.90
20141;DHT22;10231;47.702;9.826;2023-09-19T06:05:25;16.70;99.90
20141;DHT22;10231;47.702;9.826;2023-09-19T06:07:52;16.70;99.90
20141;DHT22;10231;47.702;9.826;2023-09-19T06:10:18;16.80;99.90
20141;DHT22;10231;47.702;9.826;2023-09-19T06:12:46;16.70;99.90
20141;DHT22;10231;47.702;9.826;2023-09-19T06:15:13;16.70;99.90
20141;DHT22;10231;47.702;9.826;2023-09-19T06:17:47;16.80;99.90
20141;DHT22;10231;47.702;9.826;2023-09-19T06:20:13;16.70;99.90
20141;DHT22;10231;47.702;9.826;2023-09-19T06:22:42;16.80;99.90
20141;DHT22;10231;47.702;9.826;2023-09-19T06:25:09;16.70;99.90
20141;DHT22;10231;47.702;9.826;2023-09-19T06:27:38;16.80;99.90
20141;DHT22;10231;47.702;9.826;2023-09-19T06:30:04;16.80;99.90
20141;DHT22;10231;47.702;9.826;2023-09-19T06:32:31;16.80;99.90
20141;DHT22;10231;47.702;9.826;2023-09-19T06:34:57;16.80;99.90
20141;DHT22;10231;47.702;9.826;2023-09-19T06:37:27;16.80;99.90
20141;DHT22;10231;47.702;9.826;2023-09-19T06:39:53;16.90;99.90
20141;DHT22;10231;47.702;9.826;2023-09-19T06:42:19;16.90;99.90
20141;DHT22;10231;47.702;9.826;2023-09-19T06:44:44;16.80;99.90
20141;DHT22;10231;47.702;9.826;2023-09-19T06:47:10;16.80;99.90
20141;DHT22;10231;47.702;9.826;2023-09-19T06:49:36;16.90;99.90
20141;DHT22;10231;47.702;9.826;2023-09-19T06:52:01;16.90;99.90
20141;DHT22;10231;47.702;9.826;2023-09-19T06:54:28;16.80;99.90
20141;DHT22;10231;47.702;9.826;2023-09-19T06:56:57;16.90;99.90
20141;DHT22;10231;47.702;9.826;2023-09-19T06:59:24;16.90;99.90
20141;DHT22;10231;47.702;9.826;2023-09-19T07:01:49;16.90;99.90
20141;DHT22;10231;47.702;9.826;2023-09-19T07:04:16;16.90;99.90
20141;DHT22;10231;47.702;9.826;2023-09-19T07:06:42;16.90;99.90
20141;DHT22;10231;47.702;9.826;2023-09-19T07:09:08;16.90;99.90
20141;DHT22;10231;47.702;9.826;2023-09-19T07:11:34;16.90;99.90
20141;DHT22;10231;47.702;9.826;2023-09-19T07:13:59;17.00;99.90
20141;DHT22;10231;47.702;9.826;2023-09-19T07:16:28;17.10;99.90
20141;DHT22;10231;47.702;9.826;2023-09-19T07:18:54;17.10;99.90
20141;DHT22;10231;47.702;9.826;2023-09-19T07:21:22;17.10;99.90
20141;DHT22;10231;47.702;9.826;2023-09-19T07:23:47;17.10;99.90
20141;DHT22;10231;47.702;9.826;2023-09-19T07:26:13;17.20;99.90
20141;DHT22;10231;47.702;9.826;2023-09-19T07:28:39;17.10;99.90
20141;DHT22;10231;47.702;9.826;2023-09-19T07:31:04;17.10;99.90
20141;DHT22;10231;47.702;9.826;2023-09-19T07:33:30;17.10;99.90
20141;DHT22;10231;47.702;9.826;2023-09-19T07:35:56;17.20;99.90
20141;DHT22;10231;47.702;9.826;2023-09-19T07:38:22;17.20;99.90
20141;DHT22;10231;47.702;9.826;2023-09-19T07:40:48;17.20;99.90
20141;DHT22;10231;47.702;9.826;2023-09-19T07:43:13;17.20;99.90
20141;DHT22;10231;47.702;9.826;2023-09-19T07:45:39;17.20;99.90
20141;DHT22;10231;47.702;9.826;2023-09-19T07:48:05;17.20;99.90
20141;DHT22;10231;47.702;9.826;2023-09-19T07:50:33;17.10;99.90
20141;DHT22;10231;47.702;9.826;2023-09-19T07:53:02;17.10;99.90
20141;DHT22;10231;47.702;9.826;2023-09-19T07:55:30;17.20;99.90
20141;DHT22;10231;47.702;9.826;2023-09-19T07:57:56;17.10;99.90
20141;DHT22;10231;47.702;9.826;2023-09-19T08:00:21;17.10;99.90
20141;DHT22;10231;47.702;9.826;2023-09-19T08:02:47;17.20;99.90
20141;DHT22;10231;47.702;9.826;2023-09-19T08:05:17;17.30;99.90
20141;DHT22;10231;47.702;9.826;2023-09-19T08:07:44;17.30;99.90
20141;DHT22;10231;47.702;9.826;2023-09-19T08:10:14;17.30;99.90
20141;DHT22;10231;47.702;9.826;2023-09-19T08:12:42;17.30;99.90
20141;DHT22;10231;47.702;9.826;2023-09-19T08:15:21;17.30;99.90
20141;DHT22;10231;47.702;9.826;2023-09-19T08:17:47;17.40;99.90
20141;DHT22;10231;47.702;9.826;2023-09-19T08:20:13;17.50;99.90
20141;DHT22;10231;47.702;9.826;2023-09-19T08:22:53;17.50;99.90
20141;DHT22;10231;47.702;9.826;2023-09-19T08:25:20;17.50;99.90
20141;DHT22;10231;47.702;9.826;2023-09-19T08:27:47;17.60;99.90
20141;DHT22;10231;47.702;9.826;2023-09-19T08:30:19;17.60;99.90
20141;DHT22;10231;47.702;9.826;2023-09-19T08:32:49;17.60;99.90
20141;DHT22;10231;47.702;9.826;2023-09-19T08:35:15;17.70;99.90
20141;DHT22;10231;47.702;9.826;2023-09-19T08:37:41;17.60;99.90
20141;DHT22;10231;47.702;9.826;2023-09-19T08:40:08;17.60;99.90
20141;DHT22;10231;47.702;9.826;2023-09-19T08:42:51;17.70;99.90
20141;DHT22;10231;47.702;9.826;2023-09-19T08:45:19;17.60;99.90
20141;DHT22;10231;47.702;9.826;2023-09-19T08:47:50;17.70;99.90
20141;DHT22;10231;47.702;9.826;2023-09-19T08:50:24;17.70;99.90
20141;DHT22;10231;47.702;9.826;2023-09-19T08:52:51;17.70;99.90
20141;DHT22;10231;47.702;9.826;2023-09-19T08:55:24;17.70;99.90
20141;DHT22;10231;47.702;9.826;2023-09-19T08:57:59;17.70;99.90
20141;DHT22;10231;47.702;9.826;2023-09-19T09:00:27;17.80;99.90
20141;DHT22;10231;47.702;9.826;2023-09-19T09:02:54;17.90;99.90
20141;DHT22;10231;47.702;9.826;2023-09-19T09:05:20;18.00;99.90
20141;DHT22;10231;47.702;9.826;2023-09-19T09:07:49;18.00;99.90
20141;DHT22;10231;47.702;9.826;2023-09-19T09:10:21;17.90;99.90
20141;DHT22;10231;47.702;9.826;2023-09-19T09:12:53;17.90;99.90
20141;DHT22;10231;47.702;9.826;2023-09-19T09:15:22;17.80;99.90
20141;DHT22;10231;47.702;9.826;2023-09-19T09:17:52;17.80;99.90
20141;DHT22;10231;47.702;9.826;2023-09-19T09:20:20;17.80;99.90
20141;DHT22;10231;47.702;9.826;2023-09-19T09:22:56;17.90;99.90
20141;DHT22;10231;47.702;9.826;2023-09-19T09:25:50;17.90;99.90
20141;DHT22;10231;47.702;9.826;2023-09-19T09:28:21;17.90;99.90
20141;DHT22;10231;47.702;9.826;2023-09-19T09:30:47;17.90;99.90
20141;DHT22;10231;47.702;9.826;2023-09-19T09:33:14;17.90;99.90
20141;DHT22;10231;47.702;9.826;2023-09-19T09:35:59;17.90;99.90
20141;DHT22;10231;47.702;9.826;2023-09-19T09:38:42;17.90;99.90
20141;DHT22;10231;47.702;9.826;2023-09-19T09:41:09;17.90;99.90
20141;DHT22;10231;47.702;9.826;2023-09-19T09:43:36;18.00;99.90
20141;DHT22;10231;47.702;9.826;2023-09-19T09:46:11;18.00;99.90
20141;DHT22;10231;47.702;9.826;2023-09-19T09:48:46;18.00;99.90
20141;DHT22;10231;47.702;9.826;2023-09-19T09:51:31;17.90;99.90
20141;DHT22;10231;47.702;9.826;2023-09-19T09:54:16;17.90;99.90
20141;DHT22;10231;47.702;9.826;2023-09-19T09:56:58;18.00;99.90
20141;DHT22;10231;47.702;9.826;2023-09-19T10:02:35;18.00;99.90
20141;DHT22;10231;47.702;9.826;2023-09-19T10:07:46;17.90;99.90
20141;DHT22;10231;47.702;9.826;2023-09-19T10:10:41;18.00;99.90
20141;DHT22;10231;47.702;9.826;2023-09-19T10:13:07;17.90;99.90
20141;DHT22;10231;47.702;9.826;2023-09-19T10:15:38;17.90;99.90
20141;DHT22;10231;47.702;9.826;2023-09-19T10:18:06;17.90;99.90
20141;DHT22;10231;47.702;9.826;2023-09-19T10:20:34;18.00;99.90
20141;DHT22;10231;47.702;9.826;2023-09-19T10:23:07;18.00;99.90
20141;DHT22;10231;47.702;9.826;2023-09-19T10:25:43;18.10;99.90
20141;DHT22;10231;47.702;9.826;2023-09-19T10:28:13;18.10;99.90
20141;DHT22;10231;47.702;9.826;2023-09-19T10:30:44;18.10;99.90
20141;DHT22;10231;47.702;9.826;2023-09-19T10:33:11;18.10;99.90
20141;DHT22;10231;47.702;9.826;2023-09-19T10:35:48;18.20;99.90
20141;DHT22;10231;47.702;9.826;2023-09-19T10:38:18;18.30;99.90
20141;DHT22;10231;47.702;9.826;2023-09-19T10:40:51;18.30;99.90
20141;DHT22;10231;47.702;9.826;2023-09-19T10:43:18;18.40;99.90
20141;DHT22;10231;47.702;9.826;2023-09-19T10:45:49;18.40;99.90
20141;DHT22;10231;47.702;9.826;2023-09-19T10:48:17;18.50;99.90
20141;DHT22;10231;47.702;9.826;2023-09-19T10:51:10;18.50;99.90
20141;DHT22;10231;47.702;9.826;2023-09-19T10:53:55;18.50;99.90
20141;DHT22;10231;47.702;9.826;2023-09-19T10:56:30;18.50;99.90
20141;DHT22;10231;47.702;9.826;2023-09-19T10:59:09;18.50;99.90
20141;DHT22;10231;47.702;9.826;2023-09-19T11:01:42;18.50;99.90
20141;DHT22;10231;47.702;9.826;2023-09-19T11:04:31;18.60;99.90
20141;DHT22;10231;47.702;9.826;2023-09-19T11:09:54;18.70;99.90
20141;DHT22;10231;47.702;9.826;2023-09-19T11:14:55;18.80;99.90
20141;DHT22;10231;47.702;9.826;2023-09-19T11:30:32;18.70;99.90
20141;DHT22;10231;47.702;9.826;2023-09-19T11:36:04;18.80;99.90
20141;DHT22;10231;47.702;9.826;2023-09-19T11:46:20;18.90;99.90
20141;DHT22;10231;47.702;9.826;2023-09-19T11:48:49;18.90;99.90
20141;DHT22;10231;47.702;9.826;2023-09-19T11:51:18;18.90;99.90
20141;DHT22;10231;47.702;9.826;2023-09-19T11:53:56;18.90;99.90
20141;DHT22;10231;47.702;9.826;2023-09-19T11:56:25;19.00;99.90
20141;DHT22;10231;47.702;9.826;2023-09-19T11:58:54;19.00;99.90
20141;DHT22;10231;47.702;9.826;2023-09-19T12:01:33;19.10;99.90
20141;DHT22;10231;47.702;9.826;2023-09-19T12:04:01;19.20;99.90
20141;DHT22;10231;47.702;9.826;2023-09-19T12:06:30;19.30;99.90
20141;DHT22;10231;47.702;9.826;2023-09-19T12:08:58;19.30;99.90
20141;DHT22;10231;47.702;9.826;2023-09-19T12:11:29;19.40;99.90
20141;DHT22;10231;47.702;9.826;2023-09-19T12:13:59;19.50;99.90
20141;DHT22;10231;47.702;9.826;2023-09-19T12:16:26;19.60;99.90
20141;DHT22;10231;47.702;9.826;2023-09-19T12:18:55;19.60;99.90
20141;DHT22;10231;47.702;9.826;2023-09-19T12:21:27;19.60;99.90
20141;DHT22;10231;47.702;9.826;2023-09-19T12:26:26;19.50;99.90
20141;DHT22;10231;47.702;9.826;2023-09-19T12:28:55;19.40;99.90
20141;DHT22;10231;47.702;9.826;2023-09-19T12:31:21;19.40;99.90
20141;DHT22;10231;47.702;9.826;2023-09-19T12:33:53;19.40;99.90
20141;DHT22;10231;47.702;9.826;2023-09-19T12:36:23;19.50;99.90
20141;DHT22;10231;47.702;9.826;2023-09-19T12:38:50;19.60;99.90
20141;DHT22;10231;47.702;9.826;2023-09-19T12:41:19;19.70;99.90
20141;DHT22;10231;47.702;9.826;2023-09-19T12:43:46;19.80;99.90
20141;DHT22;10231;47.702;9.826;2023-09-19T12:46:12;19.80;99.90
20141;DHT22;10231;47.702;9.826;2023-09-19T12:48:37;19.70;99.90
20141;DHT22;10231;47.702;9.826;2023-09-19T12:51:10;19.70;99.90
20141;DHT22;10231;47.702;9.826;2023-09-19T12:53:45;19.80;99.90
20141;DHT22;10231;47.702;9.826;2023-09-19T12:56:16;19.80;99.90
20141;DHT22;10231;47.702;9.826;2023-09-19T12:58:56;19.90;99.90
20141;DHT22;10231;47.702;9.826;2023-09-19T13:01:23;20.10;99.90
20141;DHT22;10231;47.702;9.826;2023-09-19T13:06:37;20.50;99.90
20141;DHT22;10231;47.702;9.826;2023-09-19T13:09:11;20.50;99.90
20141;DHT22;10231;47.702;9.826;2023-09-19T13:11:38;20.60;99.90
20141;DHT22;10231;47.702;9.826;2023-09-19T13:14:28;20.60;99.90
20141;DHT22;10231;47.702;9.826;2023-09-19T13:17:03;20.50;99.90
20141;DHT22;10231;47.702;9.826;2023-09-19T13:19:41;20.30;99.90
20141;DHT22;10231;47.702;9.826;2023-09-19T13:22:36;20.20;99.90
20141;DHT22;10231;47.702;9.826;2023-09-19T13:25:04;20.20;99.90
20141;DHT22;10231;47.702;9.826;2023-09-19T13:27:32;20.50;99.90
20141;DHT22;10231;47.702;9.826;2023-09-19T13:29:58;20.80;99.90
20141;DHT22;10231;47.702;9.826;2023-09-19T13:32:24;21.00;99.90
20141;DHT22;10231;47.702;9.826;2023-09-19T13:34:49;21.00;99.90
20141;DHT22;10231;47.702;9.826;2023-09-19T13:37:17;21.10;99.90
20141;DHT22;10231;47.702;9.826;2023-09-19T13:39:43;21.20;99.90
20141;DHT22;10231;47.702;9.826;2023-09-19T13:42:13;21.40;99.90
20141;DHT22;10231;47.702;9.826;2023-09-19T13:44:38;21.50;99.90
20141;DHT22;10231;47.702;9.826;2023-09-19T13:47:06;21.80;99.90
20141;DHT22;10231;47.702;9.826;2023-09-19T13:49:35;21.80;99.90
20141;DHT22;10231;47.702;9.826;2023-09-19T13:52:01;21.90;99.90
20141;DHT22;10231;47.702;9.826;2023-09-19T13:54:30;22.00;99.90
20141;DHT22;10231;47.702;9.826;2023-09-19T13:56:56;22.20;99.90
20141;DHT22;10231;47.702;9.826;2023-09-19T13:59:22;22.40;99.90
20141;DHT22;10231;47.702;9.826;2023-09-19T14:01:49;22.50;99.90
20141;DHT22;10231;47.702;9.826;2023-09-19T14:04:15;22.50;99.90
20141;DHT22;10231;47.702;9.826;2023-09-19T14:06:42;22.60;99.90
20141;DHT22;10231;47.702;9.826;2023-09-19T14:09:08;22.50;99.90
20141;DHT22;10231;47.702;9.826;2023-09-19T14:11:35;22.70;99.90
20141;DHT22;10231;47.702;9.826;2023-09-19T14:14:01;23.00;99.90
20141;DHT22;10231;47.702;9.826;2023-09-19T14:16:27;23.20;99.90
20141;DHT22;10231;47.702;9.826;2023-09-19T14:18:55;23.40;99.90
20141;DHT22;10231;47.702;9.826;2023-09-19T14:21:21;23.50;99.90
20141;DHT22;10231;47.702;9.826;2023-09-19T14:23:46;23.70;99.90
20141;DHT22;10231;47.702;9.826;2023-09-19T14:26:13;23.50;99.90
20141;DHT22;10231;47.702;9.826;2023-09-19T14:28:38;23.60;99.90
20141;DHT22;10231;47.702;9.826;2023-09-19T14:31:08;23.80;99.90
20141;DHT22;10231;47.702;9.826;2023-09-19T14:33:34;23.90;99.90
20141;DHT22;10231;47.702;9.826;2023-09-19T14:36:04;24.20;99.90
20141;DHT22;10231;47.702;9.826;2023-09-19T14:38:35;23.70;99.90
20141;DHT22;10231;47.702;9.826;2023-09-19T14:41:02;23.30;99.90
20141;DHT22;10231;47.702;9.826;2023-09-19T14:43:27;23.10;99.90
20141;DHT22;10231;47.702;9.826;2023-09-19T14:45:56;23.00;99.90
20141;DHT22;10231;47.702;9.826;2023-09-19T14:48:22;23.20;99.90
20141;DHT22;10231;47.702;9.826;2023-09-19T14:50:52;23.10;99.90
20141;DHT22;10231;47.702;9.826;2023-09-19T14:53:17;23.10;99.90
20141;DHT22;10231;47.702;9.826;2023-09-19T14:55:43;23.40;99.90
20141;DHT22;10231;47.702;9.826;2023-09-19T14:58:10;23.80;99.90
20141;DHT22;10231;47.702;9.826;2023-09-19T15:00:37;24.20;99.90
20141;DHT22;10231;47.702;9.826;2023-09-19T15:03:03;24.00;99.90
20141;DHT22;10231;47.702;9.826;2023-09-19T15:05:29;23.90;99.90
20141;DHT22;10231;47.702;9.826;2023-09-19T15:07:55;23.70;99.90
20141;DHT22;10231;47.702;9.826;2023-09-19T15:10:22;23.80;99.90
20141;DHT22;10231;47.702;9.826;2023-09-19T15:12:48;24.20;99.90
20141;DHT22;10231;47.702;9.826;2023-09-19T15:15:14;24.60;99.90
20141;DHT22;10231;47.702;9.826;2023-09-19T15:17:39;25.00;99.90
20141;DHT22;10231;47.702;9.826;2023-09-19T15:20:06;25.30;99.90
20141;DHT22;10231;47.702;9.826;2023-09-19T15:22:36;25.50;99.90
20141;DHT22;10231;47.702;9.826;2023-09-19T15:25:02;26.00;99.90
20141;DHT22;10231;47.702;9.826;2023-09-19T15:27:30;26.90;98.50
20141;DHT22;10231;47.702;9.826;2023-09-19T15:29:57;27.90;97.10
20141;DHT22;10231;47.702;9.826;2023-09-19T15:32:24;28.40;95.80
20141;DHT22;10231;47.702;9.826;2023-09-19T15:34:49;29.00;94.10
20141;DHT22;10231;47.702;9.826;2023-09-19T15:37:15;29.70;92.70
20141;DHT22;10231;47.702;9.826;2023-09-19T15:39:41;30.30;91.70
20141;DHT22;10231;47.702;9.826;2023-09-19T15:42:07;30.70;90.00
20141;DHT22;10231;47.702;9.826;2023-09-19T15:44:33;31.10;88.20
20141;DHT22;10231;47.702;9.826;2023-09-19T15:46:59;31.50;84.80
20141;DHT22;10231;47.702;9.826;2023-09-19T15:49:24;31.80;84.60
20141;DHT22;10231;47.702;9.826;2023-09-19T15:51:50;31.80;82.20
20141;DHT22;10231;47.702;9.826;2023-09-19T15:54:17;32.10;81.00
20141;DHT22;10231;47.702;9.826;2023-09-19T15:56:44;32.20;81.00
20141;DHT22;10231;47.702;9.826;2023-09-19T15:59:10;31.70;80.00
20141;DHT22;10231;47.702;9.826;2023-09-19T16:01:38;31.50;79.70
20141;DHT22;10231;47.702;9.826;2023-09-19T16:04:04;31.30;81.10
20141;DHT22;10231;47.702;9.826;2023-09-19T16:06:31;31.20;80.70
20141;DHT22;10231;47.702;9.826;2023-09-19T16:08:58;31.00;79.20
20141;DHT22;10231;47.702;9.826;2023-09-19T16:11:25;30.50;81.40
20141;DHT22;10231;47.702;9.826;2023-09-19T16:13:52;29.50;84.00
20141;DHT22;10231;47.702;9.826;2023-09-19T16:16:20;28.80;86.70
20141;DHT22;10231;47.702;9.826;2023-09-19T16:18:56;28.10;88.20
20141;DHT22;10231;47.702;9.826;2023-09-19T16:21:26;27.00;90.40
20141;DHT22;10231;47.702;9.826;2023-09-19T16:23:53;26.10;91.90
20141;DHT22;10231;47.702;9.826;2023-09-19T16:26:20;25.50;92.90
20141;DHT22;10231;47.702;9.826;2023-09-19T16:28:47;24.90;93.70
20141;DHT22;10231;47.702;9.826;2023-09-19T16:31:13;24.50;94.60